Wetterdaten: Woche 27.12.04 - 02.01.05 (KW53)
Datum Zeit Temperatur Luftfeuchte Luftdruck Niederschlag Wind Richtung Sonne Solar Taupunkt Windchill
27.12.2004 00:00 0.4 C 100 % 1009.2 hPa 0.0 l/m 0.0 km/h (0 Bft) N 0.00 h 0 W/m 0.4 C 0.4 C
27.12.2004 01:00 0.3 C 100 % 1009.6 hPa 0.0 l/m 0.0 km/h (0 Bft) N 0.00 h 0 W/m 0.3 C 0.3 C
27.12.2004 02:00 0.3 C 100 % 1010.2 hPa 0.0 l/m 0.0 km/h (0 Bft) N 0.00 h 0 W/m 0.3 C 0.3 C
27.12.2004 03:00 0.3 C 100 % 1010.5 hPa 0.0 l/m 0.0 km/h (0 Bft) N 0.00 h 0 W/m 0.3 C 0.3 C
27.12.2004 04:00 0.5 C 100 % 1011.2 hPa 0.0 l/m 0.0 km/h (0 Bft) N 0.00 h 0 W/m 0.5 C 0.5 C
27.12.2004 05:00 0.8 C 100 % 1011.2 hPa 0.0 l/m 0.0 km/h (0 Bft) N 0.00 h 0 W/m 0.8 C 0.8 C
27.12.2004 06:00 0.5 C 100 % 1011.8 hPa 0.0 l/m 0.0 km/h (0 Bft) N 0.00 h 0 W/m 0.5 C 0.5 C
27.12.2004 07:00 0.4 C 100 % 1012.7 hPa 0.0 l/m 0.0 km/h (0 Bft) N 0.00 h 0 W/m 0.4 C 0.4 C
27.12.2004 08:00 0.6 C 100 % 1013.3 hPa 0.0 l/m 0.0 km/h (0 Bft) N 0.00 h 0 W/m 0.6 C 0.6 C
27.12.2004 09:00 0.8 C 100 % 1014.3 hPa 0.0 l/m 0.0 km/h (0 Bft) N 0.00 h 0 W/m 0.8 C 0.8 C
27.12.2004 10:00 1.3 C 100 % 1015.1 hPa 0.0 l/m 0.0 km/h (0 Bft) N 0.00 h 0 W/m 1.3 C 1.3 C
27.12.2004 11:00 1.5 C 100 % 1015.2 hPa 0.0 l/m 0.2 km/h (0 Bft) W-NW 0.00 h 0 W/m 1.5 C 1.5 C
27.12.2004 12:00 1.6 C 100 % 1015.5 hPa 0.0 l/m 0.1 km/h (0 Bft) W-NW 0.00 h 0 W/m 1.6 C 1.6 C
27.12.2004 13:00 1.6 C 99 % 1015.9 hPa 0.0 l/m 0.1 km/h (0 Bft) N 0.00 h 0 W/m 1.5 C 1.6 C
27.12.2004 14:00 1.5 C 97 % 1016.5 hPa 0.0 l/m 0.1 km/h (0 Bft) N 0.00 h 0 W/m 1.0 C 1.5 C
27.12.2004 15:00 1.2 C 97 % 1017.4 hPa 0.0 l/m 0.0 km/h (0 Bft) N 0.00 h 0 W/m 0.8 C 1.2 C
27.12.2004 16:00 0.9 C 97 % 1018.2 hPa 0.0 l/m 0.0 km/h (0 Bft) N 0.00 h 0 W/m 0.5 C 0.9 C
27.12.2004 17:00 0.6 C 97 % 1018.5 hPa 0.0 l/m 0.0 km/h (0 Bft) N 0.00 h 0 W/m 0.2 C 0.6 C
27.12.2004 18:00 0.5 C 97 % 1019.2 hPa 0.0 l/m 0.0 km/h (0 Bft) N 0.00 h 0 W/m 0.0 C 0.5 C
27.12.2004 19:00 0.4 C 97 % 1019.6 hPa 0.0 l/m 0.0 km/h (0 Bft) N 0.00 h 0 W/m -0.0 C 0.4 C
27.12.2004 20:00 0.3 C 96 % 1019.6 hPa 0.0 l/m 0.0 km/h (0 Bft) N 0.00 h 0 W/m -0.2 C 0.3 C
27.12.2004 21:00 0.3 C 96 % 1019.6 hPa 0.0 l/m 0.0 km/h (0 Bft) N 0.00 h 0 W/m -0.3 C 0.3 C
27.12.2004 22:00 0.2 C 96 % 1019.6 hPa 0.0 l/m 0.0 km/h (0 Bft) N 0.00 h 0 W/m -0.4 C 0.2 C
27.12.2004 23:00 0.2 C 95 % 1019.6 hPa 0.0 l/m 0.0 km/h (0 Bft) N 0.00 h 0 W/m -0.5 C 0.2 C
28.12.2004 00:00 0.2 C 95 % 1019.6 hPa 0.0 l/m 0.0 km/h (0 Bft) N 0.00 h 0 W/m -0.5 C 0.2 C
28.12.2004 01:00 0.1 C 95 % 1019.3 hPa 0.0 l/m 0.6 km/h (0 Bft) W 0.00 h 0 W/m -0.6 C -0.0 C
28.12.2004 02:00 -0.1 C 92 % 1018.6 hPa 0.0 l/m 1.1 km/h (1 Bft) W 0.00 h 0 W/m -1.2 C -0.3 C
28.12.2004 03:00 -0.2 C 93 % 1018.6 hPa 0.0 l/m 5.3 km/h (1 Bft) W-NW 0.00 h 0 W/m -1.2 C -1.8 C
28.12.2004 04:00 -0.1 C 91 % 1017.8 hPa 0.0 l/m 1.0 km/h (0 Bft) O-SO 0.00 h 0 W/m -1.5 C -0.2 C
28.12.2004 05:00 -0.1 C 88 % 1017.3 hPa 0.0 l/m 2.7 km/h (1 Bft) SO 0.00 h 0 W/m -1.8 C -0.8 C
28.12.2004 06:00 -0.1 C 89 % 1016.3 hPa 0.0 l/m 0.7 km/h (0 Bft) O-SO 0.00 h 0 W/m -1.7 C -0.1 C
28.12.2004 07:00 -0.1 C 89 % 1015.5 hPa 0.0 l/m 2.0 km/h (1 Bft) W-NW 0.00 h 0 W/m -1.7 C -0.6 C
28.12.2004 08:00 -0.2 C 89 % 1014.9 hPa 0.0 l/m 1.0 km/h (0 Bft) W 0.00 h 0 W/m -1.8 C -0.4 C
28.12.2004 09:00 0.2 C 87 % 1014.4 hPa 0.0 l/m 1.8 km/h (1 Bft) W 0.00 h 0 W/m -1.7 C -0.1 C
28.12.2004 10:00 0.6 C 84 % 1013.6 hPa 0.0 l/m 0.5 km/h (0 Bft) W-NW 0.00 h 52 W/m -1.8 C 0.5 C
28.12.2004 11:00 0.7 C 85 % 1012.6 hPa 0.0 l/m 0.4 km/h (0 Bft) W-NW 0.00 h 55 W/m -1.6 C 0.7 C
28.12.2004 12:00 0.9 C 85 % 1010.9 hPa 0.0 l/m 0.0 km/h (0 Bft) N 0.00 h 79 W/m -1.2 C 0.9 C
28.12.2004 13:00 1.3 C 83 % 1009.7 hPa 0.0 l/m 0.1 km/h (0 Bft) N 0.00 h 74 W/m -1.2 C 1.3 C
28.12.2004 14:00 1.3 C 83 % 1008.8 hPa 0.0 l/m 0.1 km/h (0 Bft) W 0.00 h 53 W/m -1.3 C 1.3 C
28.12.2004 15:00 0.7 C 86 % 1009.1 hPa 0.3 l/m 0.7 km/h (0 Bft) W 0.00 h 19 W/m -1.4 C 0.7 C
28.12.2004 16:00 0.1 C 91 % 1009.4 hPa 0.6 l/m 0.0 km/h (0 Bft) N 0.00 h 4 W/m -1.2 C 0.1 C
28.12.2004 17:00 -0.0 C 93 % 1010.8 hPa 0.6 l/m 6.1 km/h (2 Bft) W-NW 0.00 h 0 W/m -1.0 C -1.8 C
28.12.2004 18:00 -0.3 C 94 % 1012.3 hPa 0.0 l/m 8.9 km/h (2 Bft) W-NW 0.00 h 0 W/m -1.2 C -3.1 C
28.12.2004 19:00 -0.2 C 92 % 1013.8 hPa 0.0 l/m 12.1 km/h (2 Bft) W-NW 0.00 h 0 W/m -1.4 C -3.8 C
28.12.2004 20:00 -0.1 C 91 % 1014.9 hPa 0.0 l/m 16.1 km/h (3 Bft) W-NW 0.00 h 0 W/m -1.3 C -4.5 C
28.12.2004 21:00 0.1 C 91 % 1016.3 hPa 0.0 l/m 17.7 km/h (3 Bft) W-NW 0.00 h 0 W/m -1.2 C -4.7 C
28.12.2004 22:00 0.3 C 91 % 1017.5 hPa 0.0 l/m 12.9 km/h (3 Bft) W-NW 0.00 h 0 W/m -0.9 C -3.3 C
28.12.2004 23:00 0.4 C 91 % 1018.7 hPa 0.0 l/m 12.5 km/h (3 Bft) W-NW 0.00 h 0 W/m -0.8 C -3.0 C
29.12.2004 00:00 0.5 C 92 % 1019.7 hPa 0.0 l/m 10.0 km/h (2 Bft) W-NW 0.00 h 0 W/m -0.7 C -2.2 C
29.12.2004 01:00 0.4 C 92 % 1020.6 hPa 0.0 l/m 18.2 km/h (3 Bft) W-NW 0.00 h 0 W/m -0.9 C -4.5 C
29.12.2004 02:00 0.2 C 91 % 1021.7 hPa 0.0 l/m 10.2 km/h (2 Bft) W-NW 0.00 h 0 W/m -1.1 C -2.8 C
29.12.2004 03:00 0.3 C 90 % 1022.7 hPa 0.0 l/m 14.7 km/h (3 Bft) W-NW 0.00 h 0 W/m -1.1 C -3.7 C
29.12.2004 04:00 0.2 C 89 % 1023.3 hPa 0.0 l/m 7.3 km/h (2 Bft) W-NW 0.00 h 0 W/m -1.4 C -1.8 C
29.12.2004 05:00 0.0 C 90 % 1024.0 hPa 0.0 l/m 0.0 km/h (0 Bft) N 0.00 h 0 W/m -1.4 C 0.0 C
29.12.2004 06:00 -0.0 C 90 % 1024.8 hPa 0.0 l/m 0.0 km/h (0 Bft) N 0.00 h 0 W/m -1.4 C -0.0 C
29.12.2004 07:00 -0.1 C 90 % 1025.5 hPa 0.0 l/m 0.0 km/h (0 Bft) N 0.00 h 0 W/m -1.5 C -0.1 C
29.12.2004 08:00 -0.1 C 90 % 1025.9 hPa 0.0 l/m 0.0 km/h (0 Bft) N 0.00 h 13 W/m -1.6 C -0.1 C
29.12.2004 09:00 0.4 C 90 % 1026.5 hPa 0.0 l/m 0.2 km/h (0 Bft) N 0.00 h 42 W/m -1.1 C 0.4 C
29.12.2004 10:00 1.0 C 86 % 1027.1 hPa 0.0 l/m 0.9 km/h (0 Bft) SO 0.00 h 97 W/m -1.2 C 0.8 C
29.12.2004 11:00 1.9 C 80 % 1027.7 hPa 0.0 l/m 2.6 km/h (1 Bft) W 0.60 h 245 W/m -1.2 C 1.4 C
29.12.2004 12:00 2.8 C 72 % 1027.5 hPa 0.0 l/m 0.4 km/h (0 Bft) SO 0.20 h 185 W/m -1.9 C 2.7 C
29.12.2004 13:00 2.5 C 69 % 1027.6 hPa 0.0 l/m 3.1 km/h (1 Bft) W-NW 0.00 h 90 W/m -2.6 C 1.7 C
29.12.2004 14:00 1.5 C 82 % 1027.7 hPa 0.0 l/m 2.9 km/h (1 Bft) O-SO 0.00 h 58 W/m -1.3 C 0.8 C
29.12.2004 15:00 1.5 C 90 % 1028.4 hPa 0.0 l/m 0.5 km/h (0 Bft) O-SO 0.00 h 41 W/m 0.0 C 1.4 C
29.12.2004 16:00 1.4 C 90 % 1029.0 hPa 0.0 l/m 0.1 km/h (0 Bft) SO 0.00 h 9 W/m -0.2 C 1.4 C
29.12.2004 17:00 0.9 C 90 % 1030.1 hPa 0.0 l/m 0.0 km/h (0 Bft) N 0.00 h 0 W/m -0.5 C 0.9 C
29.12.2004 18:00 0.3 C 93 % 1031.0 hPa 0.0 l/m 3.7 km/h (1 Bft) SO 0.00 h 0 W/m -0.7 C -0.9 C
29.12.2004 19:00 0.6 C 96 % 1031.9 hPa 0.0 l/m 1.9 km/h (1 Bft) O-SO 0.00 h 0 W/m -0.0 C 0.2 C
29.12.2004 20:00 0.6 C 96 % 1032.9 hPa 0.0 l/m 0.0 km/h (0 Bft) N 0.00 h 0 W/m 0.1 C 0.6 C
29.12.2004 21:00 0.3 C 97 % 1033.5 hPa 0.0 l/m 0.7 km/h (0 Bft) O-SO 0.00 h 0 W/m -0.2 C 0.3 C
29.12.2004 22:00 -0.2 C 97 % 1034.2 hPa 0.0 l/m 1.7 km/h (1 Bft) O-SO 0.00 h 0 W/m -0.6 C -0.5 C
29.12.2004 23:00 -0.3 C 97 % 1034.9 hPa 0.0 l/m 1.1 km/h (1 Bft) O-SO 0.00 h 0 W/m -0.7 C -0.7 C
30.12.2004 00:00 -0.2 C 99 % 1035.3 hPa 0.0 l/m 0.0 km/h (0 Bft) N 0.00 h 0 W/m -0.4 C -0.2 C
30.12.2004 01:00 -0.6 C 98 % 1035.3 hPa 0.0 l/m 0.2 km/h (0 Bft) O-SO 0.00 h 0 W/m -0.9 C -0.6 C
30.12.2004 02:00 -0.3 C 99 % 1035.3 hPa 0.0 l/m 0.0 km/h (0 Bft) N 0.00 h 0 W/m -0.4 C -0.3 C
30.12.2004 03:00 -0.2 C 99 % 1036.1 hPa 0.0 l/m 0.0 km/h (0 Bft) N 0.00 h 0 W/m -0.3 C -0.2 C
30.12.2004 04:00 -1.2 C 99 % 1036.4 hPa 0.0 l/m 0.0 km/h (0 Bft) N 0.00 h 0 W/m -1.4 C -1.2 C
30.12.2004 05:00 -1.6 C 99 % 1036.5 hPa 0.0 l/m 0.6 km/h (0 Bft) O-SO 0.00 h 0 W/m -1.8 C -1.7 C
30.12.2004 06:00 -0.9 C 99 % 1036.4 hPa 0.0 l/m 0.0 km/h (0 Bft) N 0.00 h 0 W/m -1.1 C -0.9 C
30.12.2004 07:00 -1.1 C 99 % 1036.5 hPa 0.0 l/m 0.1 km/h (0 Bft) O-SO 0.00 h 0 W/m -1.2 C -1.1 C
30.12.2004 08:00 -0.7 C 99 % 1037.4 hPa 0.0 l/m 2.0 km/h (1 Bft) O-SO 0.00 h 11 W/m -0.8 C -1.2 C
30.12.2004 09:00 -0.3 C 97 % 1037.4 hPa 0.0 l/m 4.0 km/h (1 Bft) O-SO 0.00 h 43 W/m -0.7 C -1.6 C
30.12.2004 10:00 0.3 C 86 % 1037.3 hPa 0.0 l/m 0.1 km/h (0 Bft) O 0.13 h 129 W/m -1.7 C 0.3 C
30.12.2004 11:00 1.0 C 76 % 1036.9 hPa 0.0 l/m 0.1 km/h (0 Bft) N 0.57 h 297 W/m -2.7 C 1.0 C
30.12.2004 12:00 1.8 C 69 % 1036.0 hPa 0.0 l/m 1.7 km/h (1 Bft) O-SO 0.52 h 297 W/m -3.3 C 1.4 C
30.12.2004 13:00 2.1 C 67 % 1035.2 hPa 0.0 l/m 0.2 km/h (0 Bft) O-SO 0.10 h 183 W/m -3.4 C 2.0 C
30.12.2004 14:00 1.8 C 69 % 1035.2 hPa 0.0 l/m 0.0 km/h (0 Bft) N 0.00 h 126 W/m -3.3 C 1.8 C
30.12.2004 15:00 1.0 C 71 % 1035.1 hPa 0.0 l/m 0.1 km/h (0 Bft) N 0.07 h 76 W/m -3.6 C 1.0 C
30.12.2004 16:00 -0.1 C 78 % 1035.2 hPa 0.0 l/m 3.2 km/h (1 Bft) O 0.30 h 29 W/m -3.4 C -0.9 C
30.12.2004 17:00 -1.4 C 85 % 1035.4 hPa 0.0 l/m 2.1 km/h (1 Bft) O 0.00 h 0 W/m -3.5 C -1.4 C
30.12.2004 18:00 -2.4 C 88 % 1035.6 hPa 0.0 l/m 0.0 km/h (0 Bft) O 0.00 h 0 W/m -4.1 C -2.4 C
30.12.2004 19:00 -2.8 C 90 % 1035.7 hPa 0.0 l/m 0.4 km/h (0 Bft) O 0.00 h 0 W/m -4.1 C -2.8 C
30.12.2004 20:00 -3.3 C 91 % 1035.7 hPa 0.0 l/m 0.8 km/h (0 Bft) O 0.00 h 0 W/m -4.6 C -3.5 C
30.12.2004 21:00 -3.6 C 93 % 1035.8 hPa 0.0 l/m 2.3 km/h (1 Bft) O 0.00 h 0 W/m -4.6 C -4.2 C
30.12.2004 22:00 -3.8 C 93 % 1035.0 hPa 0.0 l/m 4.5 km/h (1 Bft) O 0.00 h 0 W/m -4.8 C -5.5 C
30.12.2004 23:00 -4.4 C 91 % 1034.9 hPa 0.0 l/m 0.5 km/h (0 Bft) O 0.00 h 0 W/m -5.5 C -4.4 C
31.12.2004 00:00 -3.8 C 92 % 1034.8 hPa 0.0 l/m 0.2 km/h (0 Bft) O 0.00 h 0 W/m -4.9 C -3.8 C
31.12.2004 01:00 -3.9 C 92 % 1033.9 hPa 0.0 l/m 0.0 km/h (0 Bft) N 0.00 h 0 W/m -5.1 C -3.9 C
31.12.2004 02:00 -4.5 C 91 % 1033.8 hPa 0.0 l/m 0.9 km/h (0 Bft) O 0.00 h 0 W/m -5.8 C -4.6 C
31.12.2004 03:00 -4.8 C 90 % 1033.9 hPa 0.0 l/m 1.8 km/h (1 Bft) O 0.00 h 0 W/m -6.2 C -4.9 C
31.12.2004 04:00 -4.0 C 92 % 1033.8 hPa 0.0 l/m 0.5 km/h (0 Bft) O 0.00 h 0 W/m -5.1 C -4.2 C
31.12.2004 05:00 -3.2 C 94 % 1033.6 hPa 0.0 l/m 0.8 km/h (0 Bft) O 0.00 h 0 W/m -4.0 C -3.2 C
31.12.2004 06:00 -2.7 C 95 % 1033.6 hPa 0.0 l/m 0.9 km/h (0 Bft) O 0.00 h 0 W/m -3.4 C -2.9 C
31.12.2004 07:00 -2.3 C 95 % 1033.5 hPa 0.0 l/m 0.1 km/h (0 Bft) N 0.00 h 0 W/m -3.0 C -2.3 C
31.12.2004 08:00 -2.1 C 94 % 1033.5 hPa 0.3 l/m 0.7 km/h (0 Bft) O-NO 0.00 h 11 W/m -3.0 C -2.2 C
31.12.2004 09:00 -1.6 C 84 % 1033.4 hPa 0.0 l/m 0.2 km/h (0 Bft) SO 0.00 h 33 W/m -4.0 C -1.6 C
31.12.2004 10:00 -0.9 C 80 % 1033.3 hPa 0.0 l/m 0.1 km/h (0 Bft) W 0.00 h 86 W/m -4.0 C -0.9 C
31.12.2004 11:00 0.0 C 77 % 1032.2 hPa 0.0 l/m 0.9 km/h (0 Bft) SO 0.00 h 146 W/m -3.6 C -0.1 C
31.12.2004 12:00 1.0 C 73 % 1032.0 hPa 0.0 l/m 2.5 km/h (1 Bft) SO 0.30 h 195 W/m -3.2 C 0.5 C
31.12.2004 13:00 1.0 C 75 % 1031.1 hPa 0.0 l/m 2.6 km/h (1 Bft) SO 0.00 h 80 W/m -2.8 C 0.3 C
31.12.2004 14:00 1.1 C 79 % 1030.9 hPa 0.0 l/m 0.1 km/h (0 Bft) N 0.00 h 53 W/m -2.1 C 1.1 C
31.12.2004 15:00 1.4 C 81 % 1030.9 hPa 0.0 l/m 0.0 km/h (0 Bft) N 0.00 h 45 W/m -1.5 C 1.4 C
31.12.2004 16:00 1.2 C 83 % 1030.9 hPa 0.0 l/m 0.0 km/h (0 Bft) N 0.00 h 10 W/m -1.4 C 1.2 C
31.12.2004 17:00 0.7 C 86 % 1031.0 hPa 0.0 l/m 1.7 km/h (1 Bft) SO 0.00 h 0 W/m -1.4 C 0.6 C
31.12.2004 18:00 0.9 C 85 % 1030.9 hPa 0.0 l/m 0.0 km/h (0 Bft) SW 0.00 h 0 W/m -1.3 C 0.9 C
31.12.2004 19:00 1.2 C 81 % 1030.9 hPa 0.0 l/m 0.2 km/h (0 Bft) S-SO 0.00 h 0 W/m -1.7 C 1.2 C
31.12.2004 20:00 1.1 C 81 % 1030.9 hPa 0.0 l/m 0.8 km/h (0 Bft) SO 0.00 h 0 W/m -1.8 C 1.0 C
31.12.2004 21:00 1.2 C 80 % 1030.9 hPa 0.0 l/m 0.5 km/h (0 Bft) W 0.00 h 0 W/m -1.8 C 1.2 C
31.12.2004 22:00 1.4 C 80 % 1030.9 hPa 0.0 l/m 1.9 km/h (1 Bft) O-SO 0.00 h 0 W/m -1.7 C 1.0 C
31.12.2004 23:00 1.6 C 80 % 1030.8 hPa 0.0 l/m 2.4 km/h (1 Bft) O-SO 0.00 h 0 W/m -1.5 C 1.2 C
01.01.2005 00:00 1.8 C 84 % 1030.8 hPa 0.0 l/m 1.8 km/h (1 Bft) SO 0.00 h 0 W/m -0.6 C 1.4 C
01.01.2005 01:00 1.6 C 90 % 1030.8 hPa 0.0 l/m 0.8 km/h (0 Bft) O-SO 0.00 h 0 W/m 0.1 C 1.5 C
01.01.2005 02:00 1.7 C 94 % 1030.0 hPa 0.0 l/m 2.3 km/h (1 Bft) SO 0.00 h 0 W/m 0.8 C 1.3 C
01.01.2005 03:00 1.9 C 96 % 1029.8 hPa 0.3 l/m 2.8 km/h (1 Bft) O-SO 0.00 h 0 W/m 1.2 C 1.3 C
01.01.2005 04:00 1.9 C 96 % 1029.7 hPa 0.0 l/m 1.4 km/h (1 Bft) O-SO 0.00 h 0 W/m 1.4 C 1.9 C
01.01.2005 05:00 2.0 C 96 % 1029.7 hPa 0.0 l/m 3.6 km/h (1 Bft) SO 0.00 h 0 W/m 1.5 C 1.2 C
01.01.2005 06:00 2.0 C 96 % 1029.7 hPa 0.3 l/m 3.9 km/h (1 Bft) SO 0.00 h 0 W/m 1.4 C 1.2 C
01.01.2005 07:00 2.1 C 96 % 1030.7 hPa 0.3 l/m 1.5 km/h (1 Bft) O-SO 0.00 h 0 W/m 1.5 C 1.8 C
01.01.2005 08:00 1.9 C 96 % 1030.8 hPa 0.3 l/m 2.0 km/h (1 Bft) O-SO 0.00 h 10 W/m 1.4 C 1.4 C
01.01.2005 09:00 2.1 C 96 % 1030.8 hPa 0.3 l/m 1.1 km/h (0 Bft) O-SO 0.00 h 41 W/m 1.4 C 1.8 C
01.01.2005 10:00 3.1 C 93 % 1030.6 hPa 0.0 l/m 1.1 km/h (1 Bft) O-SO 0.00 h 121 W/m 2.1 C 2.8 C
01.01.2005 11:00 4.0 C 87 % 1029.7 hPa 0.0 l/m 0.2 km/h (0 Bft) SW 0.27 h 175 W/m 2.0 C 4.0 C
01.01.2005 12:00 4.9 C 82 % 1029.3 hPa 0.0 l/m 1.3 km/h (1 Bft) N 0.00 h 168 W/m 2.0 C 4.8 C
01.01.2005 13:00 5.8 C 77 % 1028.4 hPa 0.0 l/m 4.3 km/h (1 Bft) SO 0.15 h 184 W/m 2.1 C 5.0 C
01.01.2005 14:00 5.5 C 79 % 1028.2 hPa 0.0 l/m 1.8 km/h (1 Bft) W-NW 0.03 h 98 W/m 2.2 C 5.3 C
01.01.2005 15:00 4.9 C 84 % 1028.3 hPa 0.0 l/m 0.4 km/h (0 Bft) W-NW 0.00 h 49 W/m 2.5 C 4.8 C
01.01.2005 16:00 4.7 C 87 % 1027.6 hPa 0.0 l/m 0.0 km/h (0 Bft) N 0.00 h 7 W/m 2.6 C 4.7 C
01.01.2005 17:00 4.1 C 89 % 1027.4 hPa 0.0 l/m 0.0 km/h (0 Bft) N-NO 0.00 h 0 W/m 2.4 C 4.1 C
01.01.2005 18:00 3.3 C 92 % 1027.5 hPa 0.0 l/m 2.9 km/h (1 Bft) SO 0.00 h 0 W/m 2.1 C 2.6 C
01.01.2005 19:00 3.6 C 91 % 1027.4 hPa 0.0 l/m 1.1 km/h (1 Bft) SO 0.00 h 0 W/m 2.3 C 3.4 C
01.01.2005 20:00 3.2 C 94 % 1027.5 hPa 0.0 l/m 1.2 km/h (1 Bft) O 0.00 h 0 W/m 2.3 C 2.9 C
01.01.2005 21:00 3.3 C 89 % 1027.5 hPa 0.0 l/m 2.7 km/h (1 Bft) SO 0.00 h 0 W/m 1.7 C 2.7 C
01.01.2005 22:00 3.9 C 90 % 1026.7 hPa 0.0 l/m 1.6 km/h (1 Bft) SO 0.00 h 0 W/m 2.3 C 3.7 C
01.01.2005 23:00 4.4 C 85 % 1026.1 hPa 0.0 l/m 7.1 km/h (2 Bft) SO 0.00 h 0 W/m 2.1 C 2.9 C
02.01.2005 00:00 4.3 C 85 % 1025.2 hPa 0.3 l/m 3.7 km/h (1 Bft) SO 0.00 h 0 W/m 2.1 C 3.6 C
02.01.2005 01:00 4.2 C 92 % 1024.7 hPa 0.6 l/m 6.8 km/h (2 Bft) SO 0.00 h 0 W/m 3.0 C 2.6 C
02.01.2005 02:00 4.4 C 94 % 1024.2 hPa 0.0 l/m 6.6 km/h (2 Bft) SO 0.00 h 0 W/m 3.5 C 3.0 C
02.01.2005 03:00 4.5 C 95 % 1024.2 hPa 0.3 l/m 8.6 km/h (2 Bft) SO 0.00 h 0 W/m 3.7 C 2.6 C
02.01.2005 04:00 4.9 C 96 % 1023.3 hPa 0.9 l/m 11.4 km/h (2 Bft) SO 0.00 h 0 W/m 4.4 C 2.3 C
02.01.2005 05:00 5.3 C 97 % 1023.0 hPa 0.6 l/m 12.0 km/h (2 Bft) S-SW 0.00 h 0 W/m 4.9 C 2.7 C
02.01.2005 06:00 5.2 C 97 % 1023.0 hPa 0.0 l/m 12.4 km/h (3 Bft) SO 0.00 h 0 W/m 4.7 C 2.4 C
02.01.2005 07:00 5.3 C 97 % 1023.3 hPa 0.0 l/m 9.7 km/h (2 Bft) SO 0.00 h 0 W/m 4.9 C 3.2 C
02.01.2005 08:00 5.6 C 96 % 1024.0 hPa 0.0 l/m 9.3 km/h (2 Bft) S-SW 0.00 h 15 W/m 5.0 C 3.7 C
02.01.2005 09:00 6.3 C 94 % 1024.6 hPa 0.6 l/m 6.9 km/h (2 Bft) W 0.03 h 41 W/m 5.3 C 5.1 C
02.01.2005 10:00 6.5 C 92 % 1025.1 hPa 0.3 l/m 25.4 km/h (4 Bft) W-NW 0.00 h 57 W/m 5.3 C 2.7 C
02.01.2005 11:00 5.7 C 89 % 1026.1 hPa 0.0 l/m 36.7 km/h (5 Bft) W-NW 0.00 h 107 W/m 4.1 C 0.5 C
02.01.2005 12:00 6.0 C 83 % 1025.9 hPa 0.0 l/m 37.0 km/h (5 Bft) W-NW 0.00 h 122 W/m 3.3 C 0.8 C
02.01.2005 13:00 5.6 C 84 % 1026.1 hPa 0.3 l/m 29.9 km/h (5 Bft) W-NW 0.00 h 97 W/m 3.1 C 0.9 C
02.01.2005 14:00 5.2 C 86 % 1026.1 hPa 0.0 l/m 35.2 km/h (5 Bft) W-NW 0.00 h 83 W/m 3.2 C 0.0 C
02.01.2005 15:00 4.3 C 86 % 1027.2 hPa 0.0 l/m 41.1 km/h (6 Bft) W-NW 0.00 h 34 W/m 2.1 C -1.7 C
02.01.2005 16:00 3.9 C 87 % 1027.6 hPa 0.0 l/m 31.6 km/h (5 Bft) W-NW 0.00 h 14 W/m 2.0 C -1.4 C
02.01.2005 17:00 3.8 C 86 % 1029.2 hPa 0.0 l/m 19.9 km/h (4 Bft) W-NW 0.00 h 0 W/m 1.7 C -0.4 C
02.01.2005 18:00 3.9 C 84 % 1030.2 hPa 0.0 l/m 25.2 km/h (4 Bft) W-NW 0.00 h 0 W/m 1.5 C -0.9 C
02.01.2005 19:00 2.7 C 86 % 1031.3 hPa 0.0 l/m 21.9 km/h (4 Bft) W-NW 0.00 h 0 W/m 0.7 C -2.0 C
02.01.2005 20:00 3.0 C 84 % 1031.8 hPa 0.0 l/m 26.2 km/h (4 Bft) W-NW 0.00 h 0 W/m 0.6 C -2.1 C
02.01.2005 21:00 3.2 C 80 % 1032.8 hPa 0.0 l/m 13.3 km/h (3 Bft) W 0.00 h 0 W/m 0.0 C -0.1 C
02.01.2005 22:00 2.6 C 84 % 1033.8 hPa 0.0 l/m 9.7 km/h (2 Bft) W-NW 0.00 h 0 W/m 0.1 C 0.1 C
02.01.2005 23:00 1.8 C 86 % 1033.9 hPa 0.0 l/m 0.1 km/h (0 Bft) W-SW 0.00 h 0 W/m -0.2 C 1.8 C
Min-Datum _ 31.12.04 30.12.04 28.12.04 - 27.12.04 - - - 31.12.04 31.12.04
_ Min-Zeit 03:06 12:42 14:46 - 00:00 - - - 03:06 03:28
Minimum _ -4.9 C 66 % 1008.0 hPa - 0.0 km/h (0 Bft) - - - -6.3 C -10.0 C
Max-Datum _ 02.01.05 27.12.04 30.12.04 02.01.05 02.01.05 - 29.12.04 30.12.04 02.01.05 01.01.05
_ Max-Zeit 10:32 00:00 07:36 04:07 15:00 - 11:23 12:08 10:32 14:06
Maximum _ 6.9 C 100 % 1037.5 hPa 0.9 l/m 62.8 km/h
W-NW (8 Bft)
- 0.05 h 492 W/m 5.7 C 6.6 C
Durchschnitt _ 1.1 C 90 % 1025.9 hPa #7.2 l/m 4.3 km/h (1 Bft) W-NW #3:16 h 84 W/m -0.4 C 0.2 C

Durchschnitt Minimum Temp.0.9 C
Durchschnitt Maximum Temp.1.3 C
© Kaiko 2005